createdAt,value
2022-12-03T10:02:41.943Z,75.77
2022-12-03T10:05:11.266Z,36.53
2022-12-03T10:07:40.276Z,30.65
2022-12-03T10:10:16.828Z,29.17
2022-12-03T10:12:46.018Z,25.80
2022-12-03T10:15:16.351Z,25.40
2022-12-03T10:17:47.582Z,23.20
2022-12-03T10:20:22.707Z,27.33
2022-12-03T10:22:51.665Z,25.60
2022-12-03T10:25:22.065Z,24.92
2022-12-03T10:27:59.646Z,24.38
2022-12-03T10:30:29.700Z,29.52
2022-12-03T10:33:02.855Z,27.17
2022-12-03T10:35:42.115Z,20.88
2022-12-03T10:38:22.555Z,25.35
2022-12-03T10:40:51.881Z,25.65
2022-12-03T10:43:25.028Z,24.88
2022-12-03T10:46:12.810Z,24.75
2022-12-03T10:48:41.778Z,24.35
2022-12-03T10:51:21.058Z,21.35
2022-12-03T10:53:51.300Z,22.10
2022-12-03T10:56:25.735Z,20.02
2022-12-03T10:58:54.964Z,20.13
2022-12-03T11:01:28.138Z,22.20
2022-12-03T11:04:04.586Z,23.10
2022-12-03T11:06:35.005Z,24.85
2022-12-03T11:09:09.022Z,22.80
2022-12-03T11:11:38.263Z,25.45
2022-12-03T11:14:07.383Z,22.75
2022-12-03T11:17:10.055Z,20.27
2022-12-03T11:19:47.976Z,20.60
2022-12-03T11:22:39.187Z,17.85
2022-12-03T11:25:46.250Z,17.35
2022-12-03T11:28:54.309Z,16.92
2022-12-03T11:31:37.714Z,17.55
2022-12-03T11:34:49.948Z,16.17
2022-12-03T11:37:28.894Z,16.35
2022-12-03T11:40:39.506Z,16.00
2022-12-03T11:43:12.140Z,18.38
2022-12-03T11:45:42.341Z,16.42
2022-12-03T11:48:16.812Z,15.10
2022-12-03T11:50:51.018Z,17.17
2022-12-03T11:53:24.488Z,17.75
2022-12-03T11:56:36.284Z,17.55
2022-12-03T11:59:14.575Z,17.83
2022-12-03T12:04:38.143Z,16.05
2022-12-03T12:07:07.009Z,19.00
2022-12-03T12:09:57.581Z,18.80
2022-12-03T12:12:40.057Z,17.60
2022-12-03T12:15:51.546Z,19.02
2022-12-03T12:18:43.340Z,16.45
2022-12-03T12:21:41.487Z,18.63
2022-12-03T12:24:36.401Z,17.13
2022-12-03T12:27:21.383Z,19.98
2022-12-03T12:29:58.001Z,18.50
2022-12-03T12:32:29.769Z,21.13
2022-12-03T12:35:05.293Z,19.42
2022-12-03T12:37:59.089Z,18.90
2022-12-03T12:40:54.697Z,17.20
2022-12-03T12:43:32.066Z,19.17
2022-12-03T12:49:13.658Z,18.20
2022-12-03T12:52:02.333Z,20.17
2022-12-03T12:54:31.167Z,18.85
2022-12-03T12:57:03.011Z,19.35
2022-12-03T12:59:38.804Z,19.15
2022-12-03T13:02:36.342Z,22.38
2022-12-03T13:05:06.418Z,21.42
2022-12-03T13:07:37.543Z,21.77
2022-12-03T13:10:38.750Z,22.15
2022-12-03T13:14:17.664Z,22.38
2022-12-03T13:16:48.763Z,20.65
2022-12-03T13:19:26.259Z,19.90
2022-12-03T13:21:56.266Z,26.75
2022-12-03T13:24:45.974Z,22.58
2022-12-03T13:27:37.180Z,22.65
2022-12-03T13:30:22.977Z,23.67
2022-12-03T13:32:53.227Z,23.88
2022-12-03T13:35:57.806Z,21.23
2022-12-03T13:38:26.642Z,24.67
2022-12-03T13:42:17.041Z,22.42
2022-12-03T13:44:50.508Z,21.20
2022-12-03T13:47:31.457Z,26.70
2022-12-03T13:50:26.881Z,24.45
2022-12-03T13:53:17.185Z,24.05
2022-12-03T13:55:49.821Z,26.95
2022-12-03T13:58:18.737Z,27.48
2022-12-03T14:01:14.549Z,26.40
2022-12-03T14:04:08.209Z,20.58
2022-12-03T14:06:57.213Z,24.85
